createdAt,value
2022-11-21T00:01:29.224Z,56.16
2022-11-21T00:03:56.480Z,56.27
2022-11-21T00:06:23.957Z,56.23
2022-11-21T00:08:51.508Z,56.46
2022-11-21T00:11:18.918Z,56.31
2022-11-21T00:13:46.503Z,56.47
2022-11-21T00:16:16.015Z,56.64
2022-11-21T00:18:43.938Z,56.54
2022-11-21T00:21:15.464Z,56.39
2022-11-21T00:23:47.472Z,56.62
2022-11-21T00:26:16.792Z,56.96
2022-11-21T00:28:44.895Z,57.00
2022-11-21T00:31:21.271Z,56.75
2022-11-21T00:33:48.973Z,56.65
2022-11-21T00:36:16.378Z,57.20
2022-11-21T00:38:43.650Z,56.98
2022-11-21T00:41:10.892Z,56.90
2022-11-21T00:43:38.114Z,57.17
2022-11-21T00:46:05.303Z,57.36
2022-11-21T00:48:33.239Z,57.12
2022-11-21T00:51:01.322Z,57.11
2022-11-21T00:53:29.641Z,56.97
2022-11-21T00:55:57.263Z,57.21
2022-11-21T00:58:24.986Z,57.38
2022-11-21T01:00:52.330Z,57.55
2022-11-21T01:03:19.577Z,57.57
2022-11-21T01:05:46.854Z,57.84
2022-11-21T01:08:14.121Z,57.52
2022-11-21T01:10:41.538Z,57.47
2022-11-21T01:13:08.728Z,57.45
2022-11-21T01:15:35.960Z,57.67
2022-11-21T01:18:03.587Z,57.49
2022-11-21T01:20:31.005Z,57.71
2022-11-21T01:22:58.409Z,57.60
2022-11-21T01:25:25.608Z,57.84
2022-11-21T01:27:52.742Z,57.90
2022-11-21T01:30:19.929Z,57.52
2022-11-21T01:32:49.139Z,57.69
2022-11-21T01:35:17.342Z,57.62
2022-11-21T01:37:48.145Z,57.58
2022-11-21T01:40:16.358Z,57.90
2022-11-21T01:42:53.179Z,58.04
2022-11-21T01:45:48.683Z,57.88
2022-11-21T01:48:16.488Z,58.12
2022-11-21T01:50:44.114Z,58.19
2022-11-21T01:53:11.888Z,57.95
2022-11-21T01:55:39.295Z,58.07
2022-11-21T01:58:06.693Z,58.23
2022-11-21T02:00:40.403Z,58.26
2022-11-21T02:03:15.667Z,58.46
2022-11-21T02:05:43.013Z,58.19
2022-11-21T02:08:19.471Z,58.02
2022-11-21T02:11:04.093Z,58.02
2022-11-21T02:13:31.479Z,57.84
2022-11-21T02:15:58.973Z,58.20
2022-11-21T02:18:26.152Z,58.36
2022-11-21T02:21:09.595Z,57.89
2022-11-21T02:23:50.516Z,57.74
2022-11-21T02:26:18.586Z,58.04
2022-11-21T02:28:45.949Z,57.62
2022-11-21T02:31:13.183Z,57.45
2022-11-21T02:33:40.400Z,57.79
2022-11-21T02:36:38.486Z,57.61
2022-11-21T02:39:12.827Z,57.81
2022-11-21T02:41:54.535Z,57.94
2022-11-21T02:44:31.781Z,57.86
2022-11-21T02:46:58.948Z,57.69
2022-11-21T02:49:49.379Z,57.91
2022-11-21T02:52:17.273Z,58.11
2022-11-21T02:54:44.697Z,57.95
2022-11-21T02:57:12.378Z,58.08
2022-11-21T02:59:39.710Z,58.12
2022-11-21T03:02:07.123Z,58.33
2022-11-21T03:04:34.337Z,58.05
2022-11-21T03:07:01.570Z,58.15
2022-11-21T03:09:29.041Z,58.17
2022-11-21T03:11:56.217Z,58.24
2022-11-21T03:14:23.409Z,58.02
2022-11-21T03:16:50.660Z,58.14
2022-11-21T03:19:17.936Z,57.93
2022-11-21T03:21:45.073Z,57.75
2022-11-21T03:24:12.332Z,57.88
2022-11-21T03:26:39.852Z,57.71
2022-11-21T03:29:07.428Z,57.31
2022-11-21T03:31:34.576Z,57.44
2022-11-21T03:34:01.821Z,57.38
2022-11-21T03:36:29.294Z,57.57
2022-11-21T03:38:57.545Z,57.64
2022-11-21T03:41:26.635Z,57.57
2022-11-21T03:43:53.798Z,57.36
2022-11-21T03:46:21.066Z,57.42
2022-11-21T03:48:48.304Z,57.19
2022-11-21T03:51:15.583Z,57.15
2022-11-21T03:53:42.938Z,57.41
2022-11-21T03:56:10.155Z,57.00
2022-11-21T03:58:37.601Z,56.85
2022-11-21T04:01:05.485Z,56.96
2022-11-21T04:03:33.272Z,56.87
2022-11-21T04:06:00.792Z,56.81
2022-11-21T04:08:28.785Z,57.16
2022-11-21T04:10:56.310Z,56.95
2022-11-21T04:13:24.137Z,57.35
2022-11-21T04:15:51.382Z,57.09
2022-11-21T04:18:18.850Z,57.03
2022-11-21T04:20:46.384Z,56.87
2022-11-21T04:23:14.341Z,56.72
2022-11-21T04:25:42.060Z,56.76
2022-11-21T04:28:12.810Z,56.61
2022-11-21T04:30:40.219Z,57.04
2022-11-21T04:33:14.652Z,56.96
2022-11-21T04:35:44.643Z,56.79
2022-11-21T04:38:14.317Z,56.54
2022-11-21T04:40:43.276Z,56.93
2022-11-21T04:43:10.390Z,56.90
2022-11-21T04:45:37.574Z,57.06
2022-11-21T04:48:04.842Z,57.10
2022-11-21T04:50:32.797Z,56.90
2022-11-21T04:53:00.053Z,57.07
2022-11-21T04:55:31.834Z,56.97
2022-11-21T04:57:59.832Z,57.17
2022-11-21T05:00:27.081Z,57.23
2022-11-21T05:02:54.273Z,57.26
2022-11-21T05:05:21.476Z,57.15
2022-11-21T05:07:48.635Z,56.97
2022-11-21T05:10:15.762Z,57.14
2022-11-21T05:12:43.069Z,57.15
2022-11-21T05:15:10.654Z,57.13
2022-11-21T05:17:37.996Z,56.89
2022-11-21T05:20:06.322Z,56.98
2022-11-21T05:22:33.717Z,56.67
2022-11-21T05:25:00.953Z,56.54
2022-11-21T05:27:28.180Z,56.57
2022-11-21T05:29:55.416Z,56.27
2022-11-21T05:32:23.103Z,56.50
2022-11-21T05:34:50.349Z,56.40
2022-11-21T05:37:17.522Z,56.75
2022-11-21T05:39:44.873Z,56.38
2022-11-21T05:42:12.281Z,56.55
2022-11-21T05:44:39.585Z,56.21
2022-11-21T05:47:06.889Z,56.71
2022-11-21T05:49:34.274Z,56.47
2022-11-21T05:52:01.510Z,56.38
2022-11-21T05:54:28.879Z,56.50
2022-11-21T05:56:56.303Z,56.23
2022-11-21T05:59:23.676Z,56.28
2022-11-21T06:01:50.974Z,56.24
2022-11-21T06:04:18.164Z,56.31
2022-11-21T06:06:45.397Z,56.59
2022-11-21T06:09:12.680Z,56.46
2022-11-21T06:11:40.021Z,56.47
2022-11-21T06:14:07.302Z,56.25
2022-11-21T06:16:34.526Z,56.96
2022-11-21T06:19:01.763Z,56.87
2022-11-21T06:21:29.774Z,56.87
2022-11-21T06:24:04.751Z,56.58
2022-11-21T06:26:38.066Z,56.99
2022-11-21T06:29:05.221Z,56.78
2022-11-21T06:31:32.441Z,56.60
2022-11-21T06:34:00.256Z,56.67
2022-11-21T06:36:27.446Z,56.65
2022-11-21T06:38:56.273Z,56.84
2022-11-21T06:41:26.849Z,56.63
2022-11-21T06:43:54.154Z,56.88
2022-11-21T06:46:21.481Z,57.06
2022-11-21T06:48:48.932Z,56.88
2022-11-21T06:51:24.758Z,56.95
2022-11-21T06:53:58.408Z,57.53
2022-11-21T06:56:31.009Z,57.23
2022-11-21T06:58:59.578Z,57.62
2022-11-21T07:01:27.536Z,57.32
2022-11-21T07:03:55.448Z,57.17
2022-11-21T07:06:24.420Z,57.04
2022-11-21T07:09:25.407Z,57.04
2022-11-21T07:11:43.509Z,56.93
2022-11-21T07:14:10.829Z,57.24
2022-11-21T07:16:38.200Z,57.01
2022-11-21T07:19:05.517Z,57.10
2022-11-21T07:21:32.940Z,57.21
2022-11-21T07:24:00.442Z,57.37
2022-11-21T07:26:27.607Z,57.75
2022-11-21T07:28:54.891Z,57.71
2022-11-21T07:31:22.218Z,57.78
2022-11-21T07:33:49.415Z,57.47
2022-11-21T07:36:16.686Z,57.36
2022-11-21T07:38:46.265Z,57.31
2022-11-21T07:41:13.613Z,57.44
2022-11-21T07:43:40.817Z,57.69
2022-11-21T07:46:08.188Z,57.49
2022-11-21T07:48:35.400Z,57.48
2022-11-21T07:51:06.411Z,57.63
2022-11-21T07:53:33.717Z,57.51
2022-11-21T07:56:01.076Z,57.72
2022-11-21T07:58:28.619Z,57.67
2022-11-21T08:00:56.114Z,57.33
2022-11-21T08:03:23.413Z,57.31
2022-11-21T08:05:50.678Z,57.29
2022-11-21T08:08:17.941Z,57.34
2022-11-21T08:10:46.343Z,56.93
2022-11-21T08:13:14.976Z,56.93
2022-11-21T08:15:42.269Z,56.71
2022-11-21T08:18:10.604Z,56.69
2022-11-21T08:20:38.185Z,56.37
2022-11-21T08:23:06.640Z,56.20
2022-11-21T08:25:43.530Z,55.87
2022-11-21T08:28:12.280Z,55.46
2022-11-21T08:30:40.969Z,55.20
2022-11-21T08:33:08.549Z,55.39
2022-11-21T08:35:38.936Z,55.51
2022-11-21T08:38:06.676Z,55.84
2022-11-21T08:40:36.081Z,56.06
2022-11-21T08:43:07.865Z,56.02
2022-11-21T08:45:37.955Z,55.43
2022-11-21T08:48:10.382Z,56.03
2022-11-21T08:50:37.799Z,55.49
2022-11-21T08:53:05.195Z,55.16
2022-11-21T08:55:32.589Z,54.65
2022-11-21T08:57:59.841Z,54.43
2022-11-21T09:00:27.369Z,53.62
2022-11-21T09:02:54.670Z,53.27
2022-11-21T09:05:22.058Z,52.72
2022-11-21T09:07:56.157Z,51.84
2022-11-21T09:10:24.288Z,50.40
2022-11-21T09:12:51.541Z,50.38
2022-11-21T09:15:19.028Z,49.60
2022-11-21T09:17:46.224Z,49.53
2022-11-21T09:20:14.139Z,49.58
2022-11-21T09:22:41.537Z,48.89
2022-11-21T09:25:09.466Z,49.24
2022-11-21T09:27:36.810Z,49.36
2022-11-21T09:30:04.646Z,48.68
2022-11-21T09:32:31.960Z,48.95
2022-11-21T09:34:59.225Z,49.27
2022-11-21T09:37:26.414Z,47.94
2022-11-21T09:39:53.896Z,47.92
2022-11-21T09:42:36.578Z,47.67
2022-11-21T09:45:46.050Z,47.44
2022-11-21T09:48:36.347Z,47.50
2022-11-21T09:51:13.828Z,46.99
2022-11-21T09:54:14.808Z,46.03
2022-11-21T09:56:42.781Z,45.17
2022-11-21T09:59:28.014Z,45.45
2022-11-21T10:01:56.214Z,45.17
2022-11-21T10:04:23.549Z,45.35
2022-11-21T10:07:26.534Z,45.22
2022-11-21T10:10:38.743Z,45.76
2022-11-21T10:13:39.220Z,45.24
2022-11-21T10:16:48.905Z,44.50
2022-11-21T10:19:39.043Z,44.45
2022-11-21T10:22:53.213Z,43.77
2022-11-21T10:25:37.721Z,43.92
2022-11-21T10:28:13.971Z,45.07
2022-11-21T10:30:45.651Z,45.02
2022-11-21T10:33:31.363Z,44.05
2022-11-21T10:36:20.547Z,44.90
2022-11-21T10:38:50.393Z,45.36
2022-11-21T10:41:48.566Z,45.91
2022-11-21T10:44:30.576Z,45.92
2022-11-21T10:47:02.669Z,45.43
2022-11-21T10:49:37.847Z,45.59
2022-11-21T10:52:25.315Z,45.76
2022-11-21T10:55:07.320Z,44.96
2022-11-21T10:57:48.634Z,45.08
2022-11-21T11:00:25.985Z,44.88
2022-11-21T11:02:58.997Z,45.03
2022-11-21T11:05:29.234Z,44.81
2022-11-21T11:08:14.434Z,45.24
2022-11-21T11:11:06.004Z,44.80
2022-11-21T11:13:49.951Z,45.24
2022-11-21T11:16:22.004Z,46.77
2022-11-21T11:19:34.207Z,44.64
2022-11-21T11:22:29.056Z,44.50
2022-11-21T11:25:00.423Z,44.78
2022-11-21T11:27:29.568Z,45.01
2022-11-21T11:29:57.005Z,45.55
2022-11-21T11:32:24.691Z,46.22
2022-11-21T11:35:02.207Z,45.07
2022-11-21T11:37:43.131Z,45.38
2022-11-21T11:40:36.208Z,44.28
2022-11-21T11:44:20.907Z,42.53
2022-11-21T11:47:15.438Z,41.58
2022-11-21T11:49:52.934Z,40.63
2022-11-21T11:52:23.726Z,38.62
2022-11-21T11:54:59.740Z,38.88
2022-11-21T11:57:31.597Z,40.69
2022-11-21T12:00:43.836Z,41.24
2022-11-21T12:03:28.308Z,41.45
2022-11-21T12:06:09.146Z,41.27
2022-11-21T12:09:02.593Z,42.20
2022-11-21T12:12:31.504Z,43.57
2022-11-21T12:15:19.687Z,43.98
2022-11-21T12:18:00.901Z,44.47
2022-11-21T12:20:51.250Z,44.70
2022-11-21T12:23:20.049Z,45.32
2022-11-21T12:26:12.680Z,45.59
2022-11-21T12:29:21.695Z,46.61
2022-11-21T12:32:24.246Z,46.61
2022-11-21T12:35:36.334Z,46.47
2022-11-21T12:38:28.558Z,46.87
2022-11-21T12:41:38.742Z,47.29
2022-11-21T12:44:33.812Z,47.63
2022-11-21T12:47:48.799Z,48.06
2022-11-21T12:50:28.386Z,48.09
2022-11-21T12:53:17.598Z,48.21
2022-11-21T12:55:44.957Z,48.10
2022-11-21T12:58:25.664Z,48.08
2022-11-21T13:01:20.921Z,47.90
2022-11-21T13:04:09.654Z,48.46
2022-11-21T13:06:42.041Z,49.08
2022-11-21T13:09:17.164Z,49.03
2022-11-21T13:12:28.575Z,49.07
2022-11-21T13:15:36.900Z,49.07
2022-11-21T13:18:48.051Z,49.29
2022-11-21T13:21:48.933Z,49.22
2022-11-21T13:24:47.233Z,49.31
2022-11-21T13:27:39.330Z,49.33
2022-11-21T13:30:07.121Z,49.57
2022-11-21T13:32:50.048Z,49.44
2022-11-21T13:35:20.221Z,49.27
2022-11-21T13:37:50.510Z,49.56
2022-11-21T13:40:29.639Z,49.21
2022-11-21T13:46:02.283Z,48.55
2022-11-21T13:48:29.504Z,48.31
2022-11-21T13:51:33.070Z,48.59
2022-11-21T13:54:00.301Z,48.47
2022-11-21T13:56:42.646Z,48.57
2022-11-21T13:59:44.416Z,48.14
2022-11-21T14:02:23.431Z,47.91
2022-11-21T14:05:18.490Z,47.34
2022-11-21T14:07:47.973Z,47.05
2022-11-21T14:10:33.727Z,47.09
2022-11-21T14:13:03.851Z,46.89
2022-11-21T14:16:17.841Z,47.28
2022-11-21T14:18:47.239Z,47.38
2022-11-21T14:21:29.089Z,47.56
2022-11-21T14:24:04.879Z,47.58
2022-11-21T14:26:40.464Z,47.62
2022-11-21T14:29:19.202Z,47.70
2022-11-21T14:31:48.383Z,47.62
2022-11-21T14:34:30.269Z,48.05
2022-11-21T14:37:06.254Z,48.28
2022-11-21T14:39:44.004Z,48.38
2022-11-21T14:42:16.523Z,48.71
2022-11-21T14:44:44.690Z,48.74
2022-11-21T14:47:25.751Z,48.60
2022-11-21T14:49:59.635Z,48.54
2022-11-21T14:52:34.204Z,48.28
2022-11-21T14:55:29.077Z,48.72
2022-11-21T14:57:54.763Z,48.86
2022-11-21T15:00:59.222Z,48.40
2022-11-21T15:03:23.243Z,48.96
2022-11-21T15:06:04.705Z,48.92
2022-11-21T15:11:38.375Z,49.39
2022-11-21T15:15:02.936Z,49.66
2022-11-21T15:17:31.683Z,49.71
2022-11-21T15:20:13.294Z,49.56
2022-11-21T15:22:42.510Z,49.95
2022-11-21T15:25:31.268Z,49.98
2022-11-21T15:28:01.474Z,49.96
2022-11-21T15:30:36.980Z,50.35
2022-11-21T15:33:11.461Z,50.31
2022-11-21T15:35:38.608Z,50.45
2022-11-21T15:38:43.254Z,50.76
2022-11-21T15:41:10.379Z,50.74
2022-11-21T15:43:48.910Z,50.72
2022-11-21T15:46:26.453Z,50.57
2022-11-21T15:48:56.051Z,50.56
2022-11-21T15:52:06.161Z,50.77
2022-11-21T15:54:28.631Z,50.62
2022-11-21T15:56:56.225Z,50.57
2022-11-21T15:57:14.854Z,49.04
2022-11-21T15:59:23.377Z,50.90
2022-11-21T16:01:50.658Z,50.96
2022-11-21T16:04:25.317Z,50.63
2022-11-21T16:06:56.511Z,51.03
2022-11-21T16:09:23.648Z,50.97
2022-11-21T16:11:51.026Z,50.57
2022-11-21T16:14:18.521Z,51.03
2022-11-21T16:16:47.379Z,50.95
2022-11-21T16:19:16.172Z,50.89
2022-11-21T16:21:43.654Z,50.83
2022-11-21T16:24:11.076Z,50.98
2022-11-21T16:26:38.279Z,51.16
2022-11-21T16:29:05.548Z,51.30
2022-11-21T16:31:33.661Z,51.42
2022-11-21T16:34:01.091Z,51.15
2022-11-21T16:36:31.046Z,51.07
2022-11-21T16:39:06.917Z,50.92
2022-11-21T16:41:35.295Z,50.91
2022-11-21T16:44:02.772Z,51.27
2022-11-21T16:46:30.029Z,51.20
2022-11-21T16:49:03.241Z,51.36
2022-11-21T16:51:31.135Z,51.14
2022-11-21T16:54:01.741Z,51.07
2022-11-21T16:56:33.426Z,51.65
2022-11-21T16:59:00.789Z,51.60
2022-11-21T17:01:28.241Z,51.70
2022-11-21T17:03:55.555Z,51.98
2022-11-21T17:06:29.977Z,51.81
2022-11-21T17:09:02.566Z,52.02
2022-11-21T17:11:33.248Z,51.67
2022-11-21T17:14:04.837Z,51.70
2022-11-21T17:16:33.944Z,51.91
2022-11-21T17:19:06.353Z,52.19
2022-11-21T17:21:34.210Z,52.07
2022-11-21T17:24:01.417Z,52.43
2022-11-21T17:26:31.236Z,52.04
2022-11-21T17:29:01.752Z,52.41
2022-11-21T17:31:30.486Z,52.52
2022-11-21T17:34:00.219Z,52.17
2022-11-21T17:36:30.603Z,52.16
2022-11-21T17:39:00.481Z,52.23
2022-11-21T17:41:27.880Z,52.20
2022-11-21T17:43:59.085Z,52.11
2022-11-21T17:46:30.843Z,52.44
2022-11-21T17:48:59.399Z,52.20
2022-11-21T17:51:33.244Z,52.21
2022-11-21T17:54:02.472Z,52.46
2022-11-21T17:56:33.483Z,52.74
2022-11-21T17:59:01.891Z,52.40
2022-11-21T18:01:29.975Z,52.60
2022-11-21T18:04:05.098Z,52.39
2022-11-21T18:06:39.735Z,52.46
2022-11-21T18:09:13.275Z,52.75
2022-11-21T18:11:40.984Z,52.69
2022-11-21T18:14:14.492Z,53.08
2022-11-21T18:16:52.578Z,53.01
2022-11-21T18:19:27.181Z,52.88
2022-11-21T18:21:55.683Z,52.68
2022-11-21T18:24:22.862Z,52.82
2022-11-21T18:26:50.977Z,53.04
2022-11-21T18:29:35.648Z,52.81
2022-11-21T18:32:04.574Z,53.05
2022-11-21T18:34:31.950Z,53.01
2022-11-21T18:36:59.251Z,53.02
2022-11-21T18:39:26.402Z,53.24
2022-11-21T18:41:53.857Z,53.06
2022-11-21T18:44:22.638Z,53.79
2022-11-21T18:46:51.148Z,53.77
2022-11-21T18:49:18.597Z,53.86
2022-11-21T18:51:46.154Z,54.63
2022-11-21T18:54:13.546Z,54.61
2022-11-21T18:56:40.994Z,55.75
2022-11-21T18:59:08.670Z,55.54
2022-11-21T19:01:37.926Z,55.71
2022-11-21T19:04:05.915Z,56.85
2022-11-21T19:06:33.658Z,56.69
2022-11-21T19:09:01.126Z,56.48
2022-11-21T19:11:30.382Z,55.88
2022-11-21T19:13:59.139Z,55.70
2022-11-21T19:16:31.091Z,55.86
2022-11-21T19:19:34.699Z,55.46
2022-11-21T19:21:46.557Z,55.66
2022-11-21T19:24:15.400Z,55.62
2022-11-21T19:26:46.102Z,56.08
2022-11-21T19:29:13.301Z,55.65
2022-11-21T19:31:45.649Z,55.63
2022-11-21T19:34:18.399Z,55.54
2022-11-21T19:36:45.793Z,55.63
2022-11-21T19:39:13.656Z,55.25
2022-11-21T19:41:41.011Z,55.62
2022-11-21T19:44:08.768Z,55.76
2022-11-21T19:46:38.775Z,57.27
2022-11-21T19:49:07.670Z,57.08
2022-11-21T19:51:41.926Z,57.19
2022-11-21T19:54:11.952Z,57.79
2022-11-21T19:56:39.949Z,57.56
2022-11-21T19:59:07.496Z,57.40
2022-11-21T20:01:35.530Z,57.40
2022-11-21T20:04:05.203Z,57.54
2022-11-21T20:06:43.009Z,57.65
2022-11-21T20:09:18.343Z,57.68
2022-11-21T20:11:48.898Z,57.26
2022-11-21T20:14:21.932Z,57.68
2022-11-21T20:16:51.514Z,57.65
2022-11-21T20:19:21.579Z,57.48
2022-11-21T20:21:49.225Z,57.21
2022-11-21T20:24:17.844Z,57.27
2022-11-21T20:26:45.456Z,57.45
2022-11-21T20:29:14.686Z,57.62
2022-11-21T20:31:42.805Z,57.41
2022-11-21T20:34:13.826Z,57.17
2022-11-21T20:36:42.294Z,57.04
2022-11-21T20:39:17.549Z,57.31
2022-11-21T20:41:46.183Z,57.00
2022-11-21T20:45:14.994Z,57.10
2022-11-21T20:47:08.793Z,57.01
2022-11-21T20:49:36.059Z,56.95
2022-11-21T20:54:50.712Z,57.11
2022-11-21T20:57:18.097Z,57.09
2022-11-21T20:59:45.393Z,56.84
2022-11-21T21:02:12.868Z,56.66
2022-11-21T21:04:40.204Z,56.58
2022-11-21T21:07:07.924Z,56.56
2022-11-21T21:09:35.520Z,56.53
2022-11-21T21:12:02.850Z,56.46
2022-11-21T21:14:30.007Z,56.28
2022-11-21T21:16:57.473Z,56.35
2022-11-21T21:19:24.763Z,56.15
2022-11-21T21:21:52.096Z,56.22
2022-11-21T21:24:19.371Z,55.87
2022-11-21T21:26:48.839Z,56.06
2022-11-21T21:29:20.422Z,56.21
2022-11-21T21:31:51.651Z,56.13
2022-11-21T21:34:22.673Z,56.10
2022-11-21T21:36:51.018Z,56.08
2022-11-21T21:39:18.738Z,55.91
2022-11-21T21:41:46.771Z,55.85
2022-11-21T21:44:15.785Z,55.86
2022-11-21T21:46:43.287Z,55.73
2022-11-21T21:49:10.462Z,55.84
2022-11-21T21:51:38.025Z,55.96
2022-11-21T21:54:06.120Z,56.18
2022-11-21T21:56:33.764Z,56.06
2022-11-21T21:59:01.086Z,55.97
2022-11-21T22:01:32.214Z,56.26
2022-11-21T22:04:04.141Z,56.12
2022-11-21T22:06:34.448Z,56.07
2022-11-21T22:09:03.652Z,55.93
2022-11-21T22:11:36.279Z,55.88
2022-11-21T22:14:07.648Z,55.89
2022-11-21T22:16:34.841Z,56.08
2022-11-21T22:19:02.097Z,55.73
2022-11-21T22:21:36.130Z,55.60
2022-11-21T22:24:31.541Z,55.81
2022-11-21T22:26:58.952Z,55.73
2022-11-21T22:29:26.752Z,55.64
2022-11-21T22:31:54.028Z,55.72
2022-11-21T22:34:21.845Z,55.99
2022-11-21T22:36:49.031Z,56.03
2022-11-21T22:39:16.487Z,55.92
2022-11-21T22:41:43.653Z,55.87
2022-11-21T22:44:11.159Z,55.84
2022-11-21T22:46:38.448Z,56.12
2022-11-21T22:49:05.735Z,56.43
2022-11-21T22:51:32.943Z,56.05
2022-11-21T22:54:00.284Z,55.76
2022-11-21T22:56:27.449Z,55.95
2022-11-21T22:58:55.256Z,55.92
2022-11-21T23:01:26.019Z,56.21
2022-11-21T23:03:55.828Z,56.01
2022-11-21T23:06:26.682Z,56.49
2022-11-21T23:08:56.601Z,56.38
2022-11-21T23:11:28.025Z,56.45
2022-11-21T23:13:56.697Z,56.51
2022-11-21T23:16:24.745Z,61.28
2022-11-21T23:18:54.589Z,56.15
2022-11-21T23:21:22.102Z,56.40
2022-11-21T23:23:49.420Z,56.66
2022-11-21T23:26:16.768Z,56.54
2022-11-21T23:28:44.027Z,56.70
2022-11-21T23:31:11.356Z,56.59
2022-11-21T23:33:38.830Z,56.54
2022-11-21T23:36:06.569Z,56.76
2022-11-21T23:38:34.215Z,56.65
2022-11-21T23:41:01.438Z,56.95
2022-11-21T23:43:28.667Z,56.83
2022-11-21T23:45:55.992Z,57.15
2022-11-21T23:48:23.488Z,57.18
2022-11-21T23:50:51.186Z,57.11
2022-11-21T23:53:20.013Z,57.53
2022-11-21T23:55:48.350Z,57.60
2022-11-21T23:58:16.440Z,57.61
